createdAt,value
2018-04-17T00:00:24.968Z,42.17
2018-04-17T00:02:53.510Z,44.00
2018-04-17T00:05:21.954Z,44.23
2018-04-17T00:07:50.070Z,47.90
2018-04-17T00:10:18.935Z,46.07
2018-04-17T00:12:46.440Z,48.90
2018-04-17T00:15:19.019Z,49.40
2018-04-17T00:17:46.959Z,48.63
2018-04-17T00:20:14.475Z,50.03
2018-04-17T00:22:42.269Z,50.93
2018-04-17T00:25:09.855Z,48.70
2018-04-17T00:27:37.329Z,49.40
2018-04-17T00:30:05.081Z,49.07
2018-04-17T00:32:32.549Z,49.83
2018-04-17T00:35:00.029Z,50.70
2018-04-17T00:37:28.096Z,47.00
2018-04-17T00:39:55.638Z,48.27
2018-04-17T00:42:23.790Z,44.63
2018-04-17T00:44:51.311Z,47.67
2018-04-17T00:47:18.817Z,48.37
2018-04-17T00:49:47.329Z,47.23
2018-04-17T00:52:14.992Z,46.47
2018-04-17T00:54:42.450Z,47.43
2018-04-17T00:57:10.122Z,45.77
2018-04-17T00:59:37.576Z,46.50
2018-04-17T01:02:05.091Z,45.20
2018-04-17T01:04:32.618Z,45.73
2018-04-17T01:07:00.087Z,45.67
2018-04-17T01:09:27.558Z,44.03
2018-04-17T01:11:55.017Z,42.43
2018-04-17T01:14:22.551Z,43.50
2018-04-17T01:16:49.999Z,44.17
2018-04-17T01:19:17.581Z,41.13
2018-04-17T01:21:45.119Z,40.97
2018-04-17T01:24:12.630Z,40.60
2018-04-17T01:26:40.170Z,40.60
2018-04-17T01:29:07.696Z,41.00
2018-04-17T01:31:35.158Z,38.47
2018-04-17T01:34:02.796Z,38.13
2018-04-17T01:36:30.314Z,38.23
2018-04-17T01:38:57.893Z,37.63
2018-04-17T01:41:25.399Z,35.97
2018-04-17T01:43:53.091Z,35.87
2018-04-17T01:46:20.616Z,36.63
2018-04-17T01:48:48.135Z,37.20
2018-04-17T01:51:15.612Z,36.30
2018-04-17T01:53:43.206Z,35.50
2018-04-17T01:56:10.700Z,35.80
2018-04-17T01:58:38.191Z,34.57
2018-04-17T02:01:05.762Z,34.10
2018-04-17T02:03:33.279Z,35.80
2018-04-17T02:06:00.983Z,35.37
2018-04-17T02:08:28.536Z,38.93
2018-04-17T02:10:56.016Z,36.80
2018-04-17T02:13:23.488Z,35.37
2018-04-17T02:15:51.029Z,36.30
2018-04-17T02:18:18.975Z,37.27
2018-04-17T02:20:46.555Z,37.97
2018-04-17T02:23:14.248Z,37.07
2018-04-17T02:25:41.774Z,39.67
2018-04-17T02:28:11.840Z,39.43
2018-04-17T02:30:39.647Z,37.97
2018-04-17T02:33:07.413Z,37.37
2018-04-17T02:35:34.973Z,39.53
2018-04-17T02:38:08.057Z,38.87
2018-04-17T02:40:35.705Z,38.13
2018-04-17T02:43:04.303Z,38.47
2018-04-17T02:45:36.735Z,38.27
2018-04-17T02:48:04.427Z,38.63
2018-04-17T02:50:31.969Z,38.57
2018-04-17T02:52:59.778Z,40.23
2018-04-17T03:07:07.495Z,40.27
2018-04-17T03:09:35.419Z,42.47
2018-04-17T03:12:02.924Z,42.23
2018-04-17T03:14:30.595Z,41.50
2018-04-17T03:16:58.096Z,43.37
2018-04-17T03:19:25.620Z,42.63
2018-04-17T03:21:54.102Z,42.40
2018-04-17T03:24:21.698Z,42.50
2018-04-17T03:26:49.759Z,45.60
2018-04-17T03:29:17.348Z,44.00
2018-04-17T03:31:44.927Z,42.13
2018-04-17T03:34:13.405Z,44.57
2018-04-17T03:36:40.942Z,45.50
2018-04-17T03:39:08.514Z,44.03
2018-04-17T03:41:36.391Z,44.67
2018-04-17T03:44:04.012Z,45.70
2018-04-17T03:46:31.839Z,45.30
2018-04-17T03:49:00.014Z,45.20
2018-04-17T03:51:27.630Z,47.17
2018-04-17T03:53:55.297Z,46.40
2018-04-17T03:56:22.946Z,46.63
2018-04-17T03:58:50.635Z,47.07
2018-04-17T04:01:18.251Z,48.30
2018-04-17T04:03:45.753Z,49.80
2018-04-17T04:06:13.213Z,48.30
2018-04-17T04:08:42.671Z,50.17
2018-04-17T04:11:10.156Z,49.80
2018-04-17T04:13:37.894Z,51.27
2018-04-17T04:16:06.102Z,51.47
2018-04-17T04:18:45.767Z,50.70
2018-04-17T04:21:25.098Z,51.40
2018-04-17T04:24:09.466Z,48.63
2018-04-17T04:26:36.992Z,51.83
2018-04-17T04:29:04.479Z,52.60
2018-04-17T04:31:31.952Z,52.37
2018-04-17T04:33:59.489Z,52.37
2018-04-17T04:36:27.714Z,52.87
2018-04-17T04:38:55.190Z,55.13
2018-04-17T04:41:22.954Z,53.87
2018-04-17T04:43:50.419Z,54.63
2018-04-17T04:46:18.700Z,52.57
2018-04-17T04:48:46.572Z,52.63
2018-04-17T04:51:14.036Z,53.87
2018-04-17T04:53:41.539Z,55.63
2018-04-17T04:56:09.362Z,56.10
2018-04-17T04:58:37.024Z,53.90
2018-04-17T05:01:04.780Z,53.77
2018-04-17T05:03:32.472Z,54.23
2018-04-17T05:06:00.200Z,54.70
2018-04-17T05:08:28.028Z,54.27
2018-04-17T05:10:55.520Z,54.20
2018-04-17T05:13:23.254Z,54.30
2018-04-17T05:15:50.739Z,54.80
2018-04-17T05:18:18.621Z,52.40
2018-04-17T05:20:46.113Z,55.53
2018-04-17T05:23:14.015Z,55.00
2018-04-17T05:25:42.379Z,55.63
2018-04-17T05:28:11.539Z,54.17
2018-04-17T05:30:39.140Z,56.53
2018-04-17T05:33:07.505Z,56.63
2018-04-17T05:35:35.148Z,55.60
2018-04-17T05:38:02.619Z,56.00
2018-04-17T05:40:30.147Z,52.87
2018-04-17T05:42:57.599Z,53.47
2018-04-17T05:45:25.115Z,55.97
2018-04-17T05:47:55.921Z,55.33
2018-04-17T05:50:23.489Z,54.17
2018-04-17T05:52:51.489Z,53.43
2018-04-17T05:55:19.187Z,52.83
2018-04-17T05:57:47.381Z,54.77
2018-04-17T06:00:14.928Z,54.03
2018-04-17T06:02:42.431Z,53.17
2018-04-17T06:05:09.918Z,54.47
2018-04-17T06:07:37.459Z,56.83
2018-04-17T06:10:05.675Z,54.80
2018-04-17T06:12:34.559Z,53.83
2018-04-17T06:15:03.439Z,54.07
2018-04-17T06:17:30.922Z,53.03
2018-04-17T06:19:58.511Z,53.77
2018-04-17T06:22:26.923Z,52.40
2018-04-17T06:27:52.697Z,50.83
2018-04-17T06:30:20.413Z,51.27
2018-04-17T06:32:50.694Z,51.47
2018-04-17T06:35:18.428Z,48.87
2018-04-17T06:37:46.002Z,51.30
2018-04-17T06:40:13.574Z,49.50
2018-04-17T06:42:42.235Z,49.30
2018-04-17T06:45:33.486Z,47.63
2018-04-17T06:48:00.950Z,44.93
2018-04-17T06:50:28.673Z,49.27
2018-04-17T06:52:56.156Z,44.63
2018-04-17T06:55:38.438Z,44.13
2018-04-17T06:58:06.002Z,41.37
2018-04-17T07:00:33.530Z,42.67
2018-04-17T07:03:01.555Z,42.67
2018-04-17T07:05:52.769Z,42.90
2018-04-17T07:08:20.277Z,41.70
2018-04-17T07:10:50.313Z,42.00
2018-04-17T07:13:18.569Z,42.63
2018-04-17T07:15:46.181Z,45.73
2018-04-17T07:18:14.705Z,44.50
2018-04-17T07:20:42.505Z,48.43
2018-04-17T07:23:10.195Z,44.83
2018-04-17T07:25:37.707Z,41.90
2018-04-17T07:28:05.253Z,44.10
2018-04-17T07:30:32.829Z,43.17
2018-04-17T07:33:00.337Z,43.33
2018-04-17T07:35:27.900Z,42.73
2018-04-17T07:37:55.486Z,42.80
2018-04-17T07:40:24.010Z,42.73
2018-04-17T07:42:52.039Z,40.27
2018-04-17T07:45:19.770Z,44.07
2018-04-17T07:47:56.723Z,41.33
2018-04-17T07:50:24.233Z,42.97
2018-04-17T07:52:51.765Z,42.30
2018-04-17T07:55:19.254Z,42.07
2018-04-17T07:57:47.510Z,39.60
2018-04-17T08:00:14.989Z,41.63
2018-04-17T08:02:42.551Z,43.40
2018-04-17T08:05:10.044Z,39.60
2018-04-17T08:07:37.524Z,37.47
2018-04-17T08:10:05.797Z,37.97
2018-04-17T08:12:33.331Z,37.23
2018-04-17T08:15:00.829Z,37.43
2018-04-17T08:17:28.366Z,38.30
2018-04-17T08:19:56.113Z,38.17
2018-04-17T08:22:23.643Z,36.57
2018-04-17T08:24:51.155Z,37.63
2018-04-17T08:27:19.474Z,37.30
2018-04-17T08:29:47.106Z,37.10
2018-04-17T08:32:15.538Z,35.10
2018-04-17T08:34:43.882Z,35.73
2018-04-17T08:37:11.927Z,35.50
2018-04-17T08:39:40.202Z,36.13
2018-04-17T08:42:08.932Z,37.33
2018-04-17T08:44:36.401Z,35.63
2018-04-17T08:47:03.854Z,36.50
2018-04-17T08:49:31.434Z,36.80
2018-04-17T08:51:59.029Z,32.73
2018-04-17T08:54:26.567Z,32.67
2018-04-17T08:56:54.027Z,33.40
2018-04-17T08:59:21.514Z,33.30
2018-04-17T09:01:49.938Z,32.07
2018-04-17T09:04:17.437Z,32.53
2018-04-17T09:06:44.912Z,34.80
2018-04-17T09:09:12.858Z,34.03
2018-04-17T09:11:40.364Z,34.07
2018-04-17T09:14:07.958Z,34.87
2018-04-17T09:16:35.512Z,35.63
2018-04-17T09:19:03.368Z,35.80
2018-04-17T09:21:30.848Z,36.13
2018-04-17T09:23:58.536Z,33.97
2018-04-17T09:26:25.983Z,33.23
2018-04-17T09:28:53.430Z,32.67
2018-04-17T09:31:20.995Z,37.10
2018-04-17T09:33:48.514Z,37.77
2018-04-17T09:36:16.629Z,37.67
2018-04-17T09:38:44.137Z,35.47
2018-04-17T09:41:11.693Z,34.50
2018-04-17T09:43:39.158Z,33.80
2018-04-17T09:46:06.667Z,35.60
2018-04-17T09:48:34.141Z,34.20
2018-04-17T09:51:01.670Z,32.67
2018-04-17T09:53:29.996Z,32.30
2018-04-17T09:55:57.563Z,29.00
2018-04-17T09:58:25.123Z,32.03
2018-04-17T10:01:04.320Z,28.67
2018-04-17T10:03:31.834Z,30.85
2018-04-17T10:06:00.715Z,30.15
2018-04-17T10:08:28.276Z,25.98
2018-04-17T10:10:55.722Z,29.33
2018-04-17T10:13:23.238Z,25.17
2018-04-17T10:15:50.746Z,27.70
2018-04-17T10:18:18.219Z,29.35
2018-04-17T10:20:45.701Z,24.83
2018-04-17T10:23:13.229Z,28.27
2018-04-17T10:25:40.964Z,24.75
2018-04-17T10:28:08.694Z,27.48
2018-04-17T10:30:36.363Z,26.00
2018-04-17T10:33:03.892Z,26.55
2018-04-17T10:35:31.343Z,23.10
2018-04-17T10:37:58.904Z,23.75
2018-04-17T10:40:26.362Z,23.83
2018-04-17T10:42:53.904Z,23.23
2018-04-17T10:45:21.384Z,23.25
2018-04-17T10:47:48.876Z,23.70
2018-04-17T10:50:16.328Z,25.17
2018-04-17T10:52:43.816Z,25.77
2018-04-17T10:55:11.308Z,23.50
2018-04-17T10:57:38.844Z,23.77
2018-04-17T11:00:06.308Z,23.73
2018-04-17T11:02:33.838Z,23.65
2018-04-17T11:05:01.324Z,24.45
2018-04-17T11:07:28.817Z,24.85
2018-04-17T11:09:56.290Z,29.42
2018-04-17T11:12:23.761Z,24.77
2018-04-17T11:14:51.304Z,27.42
2018-04-17T11:17:18.911Z,25.02
2018-04-17T11:19:46.392Z,27.52
2018-04-17T11:22:13.925Z,23.08
2018-04-17T11:24:41.408Z,22.67
2018-04-17T11:27:08.861Z,21.87
2018-04-17T11:29:36.362Z,22.25
2018-04-17T11:32:03.862Z,22.67
2018-04-17T11:34:31.445Z,20.83
2018-04-17T11:36:58.927Z,23.12
2018-04-17T11:39:26.400Z,22.02
2018-04-17T11:41:54.012Z,23.10
2018-04-17T11:44:21.528Z,25.55
2018-04-17T11:46:49.093Z,21.83
2018-04-17T11:49:16.628Z,22.17
2018-04-17T11:51:44.140Z,22.45
2018-04-17T11:54:11.623Z,23.35
2018-04-17T11:56:39.110Z,27.85
2018-04-17T11:59:06.614Z,25.90
2018-04-17T12:01:34.088Z,27.35
2018-04-17T12:04:01.638Z,28.20
2018-04-17T12:06:29.233Z,26.90
2018-04-17T12:08:57.580Z,30.17
2018-04-17T12:11:25.092Z,28.60
2018-04-17T12:13:52.942Z,36.63
2018-04-17T12:16:20.407Z,31.48
2018-04-17T12:18:47.923Z,33.30
2018-04-17T12:21:15.380Z,28.52
2018-04-17T12:23:42.948Z,33.92
2018-04-17T12:26:10.554Z,28.75
2018-04-17T12:28:38.039Z,33.67
2018-04-17T12:31:05.550Z,28.98
2018-04-17T12:33:33.085Z,33.78
2018-04-17T12:36:00.593Z,34.33
2018-04-17T12:38:28.080Z,30.88
2018-04-17T12:40:55.543Z,35.20
2018-04-17T12:43:23.015Z,33.60
2018-04-17T12:45:50.467Z,29.25
2018-04-17T12:48:17.963Z,31.62
2018-04-17T12:50:45.408Z,28.30
2018-04-17T12:53:12.879Z,34.03
2018-04-17T12:55:40.495Z,30.08
2018-04-17T12:58:07.981Z,29.25
2018-04-17T13:00:35.455Z,30.75
2018-04-17T13:03:02.915Z,34.55
2018-04-17T13:05:30.406Z,29.25
2018-04-17T13:07:57.891Z,31.90
2018-04-17T13:10:25.502Z,35.78
2018-04-17T13:12:53.049Z,31.27
2018-04-17T13:15:20.495Z,36.10
2018-04-17T13:17:47.992Z,32.17
2018-04-17T13:20:15.472Z,28.73
2018-04-17T13:22:42.934Z,29.50
2018-04-17T13:25:10.425Z,33.78
2018-04-17T13:27:37.877Z,29.92
2018-04-17T13:30:05.426Z,31.92
2018-04-17T13:32:32.903Z,30.73
2018-04-17T13:35:00.383Z,34.00
2018-04-17T13:37:27.897Z,29.40
2018-04-17T13:39:55.374Z,28.20
2018-04-17T13:42:22.852Z,28.50
2018-04-17T13:44:50.393Z,27.90
2018-04-17T13:47:17.899Z,28.08
2018-04-17T13:49:45.352Z,28.65
2018-04-17T13:52:12.868Z,27.48
2018-04-17T13:54:40.372Z,27.37
2018-04-17T13:57:07.848Z,26.20
2018-04-17T13:59:35.300Z,27.10
2018-04-17T14:02:02.818Z,25.88
2018-04-17T14:04:30.400Z,27.95
2018-04-17T14:06:58.706Z,27.65
2018-04-17T14:09:26.285Z,26.20
2018-04-17T14:11:53.964Z,26.73
2018-04-17T14:14:21.533Z,26.80
2018-04-17T14:16:49.172Z,26.00
2018-04-17T14:19:16.670Z,27.62
2018-04-17T14:21:44.206Z,26.92
2018-04-17T14:24:11.669Z,27.17
2018-04-17T14:26:39.537Z,25.73
2018-04-17T14:29:07.012Z,25.30
2018-04-17T14:31:34.527Z,25.85
2018-04-17T14:34:02.026Z,23.33
2018-04-17T14:36:29.505Z,26.12
2018-04-17T14:38:57.937Z,25.83
2018-04-17T14:41:25.434Z,28.05
2018-04-17T14:43:52.959Z,25.35
2018-04-17T14:46:20.411Z,27.55
2018-04-17T14:48:47.904Z,25.83
2018-04-17T14:51:15.400Z,24.20
2018-04-17T14:53:43.082Z,27.42
2018-04-17T14:56:10.599Z,28.48
2018-04-17T14:58:38.054Z,25.30
2018-04-17T15:01:05.507Z,31.70
2018-04-17T15:03:33.004Z,26.75
2018-04-17T15:06:00.490Z,29.27
2018-04-17T15:08:27.990Z,25.10
2018-04-17T15:10:55.504Z,29.73
2018-04-17T15:13:23.012Z,28.02
2018-04-17T15:15:50.544Z,27.27
2018-04-17T15:18:18.023Z,28.55
2018-04-17T15:20:45.577Z,25.00
2018-04-17T15:23:13.042Z,24.67
2018-04-17T15:25:40.595Z,25.08
2018-04-17T15:28:08.117Z,24.12
2018-04-17T15:30:35.654Z,29.25
2018-04-17T15:33:03.150Z,27.60
2018-04-17T15:35:30.612Z,28.73
2018-04-17T15:37:58.081Z,24.77
2018-04-17T15:40:25.590Z,25.60
2018-04-17T15:42:53.047Z,22.83
2018-04-17T15:45:20.621Z,25.37
2018-04-17T15:47:48.097Z,20.55
2018-04-17T15:50:15.823Z,23.27
2018-04-17T15:52:43.289Z,20.37
2018-04-17T15:55:10.933Z,25.60
2018-04-17T15:57:38.395Z,20.12
2018-04-17T16:00:05.882Z,29.08
2018-04-17T16:02:33.349Z,25.83
2018-04-17T16:05:00.872Z,28.77
2018-04-17T16:07:28.447Z,25.77
2018-04-17T16:09:55.942Z,26.67
2018-04-17T16:12:23.529Z,29.90
2018-04-17T16:14:52.029Z,30.73
2018-04-17T16:17:20.205Z,27.30
2018-04-17T16:19:47.683Z,33.67
2018-04-17T16:22:15.136Z,28.05
2018-04-17T16:24:42.610Z,32.45
2018-04-17T16:27:10.171Z,26.77
2018-04-17T16:29:37.661Z,30.67
2018-04-17T16:32:05.119Z,27.45
2018-04-17T16:34:32.605Z,31.67
2018-04-17T16:37:00.067Z,29.58
2018-04-17T16:39:27.537Z,33.38
2018-04-17T16:41:55.003Z,30.45
2018-04-17T16:44:22.460Z,35.42
2018-04-17T16:46:49.938Z,28.67
2018-04-17T16:49:17.445Z,32.75
2018-04-17T16:51:45.039Z,33.30
2018-04-17T16:54:12.433Z,28.92
2018-04-17T16:56:40.276Z,31.30
2018-04-17T16:59:07.753Z,28.92
2018-04-17T17:01:35.253Z,31.92
2018-04-17T17:04:02.726Z,34.67
2018-04-17T17:06:30.183Z,25.90
2018-04-17T17:08:57.669Z,31.77
2018-04-17T17:11:25.556Z,32.13
2018-04-17T17:13:54.023Z,34.35
2018-04-17T17:16:24.216Z,36.88
2018-04-17T17:18:54.559Z,36.17
2018-04-17T17:21:22.218Z,36.28
2018-04-17T17:23:49.709Z,37.08
2018-04-17T17:26:17.452Z,36.55
2018-04-17T17:28:45.230Z,36.40
2018-04-17T17:31:12.787Z,37.63
2018-04-17T17:33:40.309Z,38.95
2018-04-17T17:36:07.976Z,34.35
2018-04-17T17:38:35.473Z,36.97
2018-04-17T17:41:03.053Z,36.70
2018-04-17T17:43:30.655Z,36.38
2018-04-17T17:45:58.152Z,34.20
2018-04-17T17:48:25.794Z,29.73
2018-04-17T17:50:53.310Z,34.92
2018-04-17T17:53:20.801Z,35.53
2018-04-17T17:55:48.332Z,36.30
2018-04-17T17:58:15.791Z,37.28
2018-04-17T18:00:43.641Z,35.60
2018-04-17T18:03:11.180Z,35.60
2018-04-17T18:05:38.710Z,34.35
2018-04-17T18:08:06.259Z,36.05
2018-04-17T18:10:33.820Z,33.05
2018-04-17T18:13:01.287Z,34.90
2018-04-17T18:15:28.753Z,33.97
2018-04-17T18:17:56.211Z,34.88
2018-04-17T18:20:23.688Z,35.13
2018-04-17T18:22:51.332Z,35.70
2018-04-17T18:25:28.617Z,36.97
2018-04-17T18:27:56.169Z,34.72
2018-04-17T18:30:23.669Z,34.38
2018-04-17T18:32:51.224Z,36.55
2018-04-17T18:35:18.720Z,36.60
2018-04-17T18:37:46.212Z,37.60
2018-04-17T18:40:13.764Z,36.20
2018-04-17T18:42:41.473Z,36.20
2018-04-17T18:45:09.200Z,34.80
2018-04-17T18:47:36.768Z,36.97
2018-04-17T18:50:04.309Z,36.17
2018-04-17T18:52:31.873Z,35.38
2018-04-17T18:54:59.371Z,33.55
2018-04-17T18:57:26.864Z,36.78
2018-04-17T18:59:54.396Z,36.35
2018-04-17T19:02:21.897Z,34.58
2018-04-17T19:04:49.751Z,35.80
2018-04-17T19:07:18.303Z,36.03
2018-04-17T19:09:46.258Z,36.83
2018-04-17T19:12:13.783Z,36.50
2018-04-17T19:14:41.296Z,36.40
2018-04-17T19:17:08.828Z,35.92
2018-04-17T19:19:36.298Z,35.65
2018-04-17T19:22:03.817Z,35.78
2018-04-17T19:24:31.328Z,34.45
2018-04-17T19:26:58.802Z,35.92
2018-04-17T19:29:26.295Z,35.03
2018-04-17T19:31:53.825Z,35.85
2018-04-17T19:34:21.357Z,36.42
2018-04-17T19:36:49.020Z,30.52
2018-04-17T19:39:16.500Z,35.50
2018-04-17T19:41:43.965Z,36.60
2018-04-17T19:44:11.549Z,36.53
2018-04-17T19:46:39.062Z,37.00
2018-04-17T19:49:06.566Z,35.65
2018-04-17T19:51:34.068Z,36.53
2018-04-17T19:54:01.576Z,34.15
2018-04-17T19:56:29.142Z,34.70
2018-04-17T19:58:56.640Z,32.58
2018-04-17T20:01:24.166Z,37.50
2018-04-17T20:03:51.675Z,33.30
2018-04-17T20:06:19.368Z,29.50
2018-04-17T20:08:46.855Z,33.77
2018-04-17T20:11:14.429Z,33.70
2018-04-17T20:13:42.135Z,33.55
2018-04-17T20:16:09.656Z,33.53
2018-04-17T20:18:37.152Z,34.72
2018-04-17T20:21:04.681Z,30.03
2018-04-17T20:23:32.278Z,33.40
2018-04-17T20:25:59.772Z,34.10
2018-04-17T20:28:27.629Z,29.63
2018-04-17T20:30:55.120Z,35.37
2018-04-17T20:33:22.630Z,32.40
2018-04-17T20:35:50.137Z,33.60
2018-04-17T20:38:17.670Z,35.63
2018-04-17T20:40:45.177Z,36.30
2018-04-17T20:43:13.723Z,37.58
2018-04-17T20:45:41.286Z,36.00
2018-04-17T20:48:08.874Z,35.97
2018-04-17T20:50:36.458Z,33.40
2018-04-17T20:53:04.491Z,34.10
2018-04-17T20:55:46.278Z,32.90
2018-04-17T20:58:13.835Z,32.10
2018-04-17T21:00:41.350Z,32.70
2018-04-17T21:03:08.835Z,32.10
2018-04-17T21:05:36.397Z,33.73
2018-04-17T21:08:03.920Z,33.88
2018-04-17T21:10:31.405Z,32.05
2018-04-17T21:12:58.888Z,31.75
2018-04-17T21:15:26.369Z,31.83
2018-04-17T21:17:53.826Z,32.20
2018-04-17T21:20:22.269Z,31.83
2018-04-17T21:22:49.712Z,33.90
2018-04-17T21:25:17.198Z,30.73
2018-04-17T21:27:44.670Z,31.73
2018-04-17T21:30:12.118Z,31.67
2018-04-17T21:32:39.582Z,30.97
2018-04-17T21:35:07.111Z,31.40
2018-04-17T21:37:34.655Z,29.80
2018-04-17T21:40:02.449Z,31.93
2018-04-17T21:42:29.935Z,32.13
2018-04-17T21:44:57.516Z,33.17
2018-04-17T21:47:24.990Z,32.27
2018-04-17T21:49:52.552Z,32.97
2018-04-17T21:52:20.126Z,32.93
2018-04-17T21:54:47.611Z,30.53
2018-04-17T21:57:15.068Z,31.20
2018-04-17T21:59:42.522Z,31.63
2018-04-17T22:02:09.997Z,30.73
2018-04-17T22:04:37.516Z,31.10
2018-04-17T22:07:05.027Z,33.10
2018-04-17T22:09:33.380Z,31.40
2018-04-17T22:12:00.952Z,32.07
2018-04-17T22:14:28.418Z,32.87
2018-04-17T22:16:59.025Z,29.83
2018-04-17T22:19:26.558Z,31.93
2018-04-17T22:21:54.042Z,30.93
2018-04-17T22:24:21.560Z,31.10
2018-04-17T22:26:49.275Z,32.10
2018-04-17T22:29:17.016Z,32.03
2018-04-17T22:31:44.820Z,31.73
2018-04-17T22:34:12.326Z,31.43
2018-04-17T22:36:39.786Z,31.53
2018-04-17T22:39:07.268Z,33.27
2018-04-17T22:41:34.761Z,31.50
2018-04-17T22:44:02.244Z,30.50
2018-04-17T22:46:29.703Z,33.30
2018-04-17T22:48:57.190Z,29.93
2018-04-17T22:51:24.642Z,31.73
2018-04-17T22:53:52.142Z,31.47
2018-04-17T22:56:19.590Z,31.97
2018-04-17T22:58:47.202Z,32.73
2018-04-17T23:01:14.671Z,31.57
2018-04-17T23:03:42.494Z,32.07
2018-04-17T23:06:09.974Z,33.47
2018-04-17T23:08:38.178Z,31.33
2018-04-17T23:11:05.662Z,33.33
2018-04-17T23:13:33.170Z,32.47
2018-04-17T23:16:00.618Z,32.73
2018-04-17T23:18:28.078Z,32.40
2018-04-17T23:20:55.536Z,31.33
2018-04-17T23:23:22.987Z,30.83
2018-04-17T23:25:50.474Z,32.90
2018-04-17T23:28:17.926Z,32.87
2018-04-17T23:30:45.381Z,34.13
2018-04-17T23:33:12.817Z,33.27
2018-04-17T23:35:40.296Z,34.33
2018-04-17T23:38:07.742Z,34.57
2018-04-17T23:40:35.188Z,35.07
2018-04-17T23:43:02.649Z,35.23
2018-04-17T23:45:30.104Z,33.30
2018-04-17T23:47:57.595Z,34.47
2018-04-17T23:50:25.026Z,33.90
2018-04-17T23:52:52.482Z,35.17
2018-04-17T23:55:19.970Z,36.10
2018-04-17T23:57:47.424Z,35.87
